createdAt,value
2018-07-15T00:00:30.385Z,36.40
2018-07-15T00:01:03.528Z,36.30
2018-07-15T00:01:36.542Z,36.40
2018-07-15T00:02:09.582Z,36.40
2018-07-15T00:02:42.608Z,36.40
2018-07-15T00:03:15.632Z,36.70
2018-07-15T00:03:48.679Z,36.90
2018-07-15T00:04:21.788Z,37.20
2018-07-15T00:04:54.814Z,37.30
2018-07-15T00:05:27.805Z,37.70
2018-07-15T00:06:00.896Z,37.80
2018-07-15T00:06:33.930Z,38.20
2018-07-15T00:07:06.970Z,38.60
2018-07-15T00:07:40.020Z,38.50
2018-07-15T00:08:13.075Z,38.80
2018-07-15T00:08:46.103Z,39.10
2018-07-15T00:22:24.197Z,39.50
2018-07-15T00:22:57.242Z,42.60
2018-07-15T00:23:30.266Z,42.90
2018-07-15T00:24:03.320Z,42.10
2018-07-15T00:24:36.338Z,41.20
2018-07-15T00:25:09.390Z,40.50
2018-07-15T00:25:42.434Z,39.80
2018-07-15T00:26:15.465Z,39.50
2018-07-15T00:26:48.450Z,39.10
2018-07-15T00:27:21.478Z,39.10
2018-07-15T00:27:54.466Z,39.50
2018-07-15T00:28:27.498Z,39.60
2018-07-15T00:29:00.540Z,39.70
2018-07-15T00:29:33.566Z,40.00
2018-07-15T00:30:06.942Z,40.10
2018-07-15T00:30:39.955Z,40.40
2018-07-15T00:31:13.066Z,40.60
2018-07-15T00:31:46.307Z,40.90
2018-07-15T00:32:19.406Z,40.90
2018-07-15T00:32:52.444Z,40.80
2018-07-15T00:33:25.498Z,40.80
2018-07-15T00:33:58.526Z,40.60
2018-07-15T00:34:31.540Z,40.90
2018-07-15T00:35:04.586Z,40.90
2018-07-15T00:35:37.621Z,41.00
2018-07-15T00:36:10.694Z,41.00
2018-07-15T00:36:43.718Z,41.20
2018-07-15T00:37:16.724Z,41.50
2018-07-15T00:37:49.748Z,42.30
2018-07-15T00:38:22.799Z,42.30
2018-07-15T00:38:55.846Z,41.80
2018-07-15T00:39:28.868Z,41.60
2018-07-15T00:40:01.899Z,41.60
2018-07-15T00:40:34.936Z,41.30
2018-07-15T00:41:08.266Z,41.00
2018-07-15T00:41:41.308Z,40.50
2018-07-15T00:42:14.360Z,40.00
2018-07-15T00:42:47.414Z,39.30
2018-07-15T00:43:20.586Z,39.00
2018-07-15T00:43:53.632Z,39.00
2018-07-15T00:44:26.690Z,38.90
2018-07-15T00:44:59.704Z,39.00
2018-07-15T00:45:32.739Z,39.20
2018-07-15T00:46:05.860Z,39.50
2018-07-15T00:46:38.900Z,39.70
2018-07-15T00:47:11.929Z,39.80
2018-07-15T00:47:44.963Z,39.60
2018-07-15T00:48:17.972Z,39.40
2018-07-15T00:48:51.034Z,39.50
2018-07-15T00:49:24.062Z,39.90
2018-07-15T00:49:57.258Z,40.30
2018-07-15T00:50:30.390Z,40.40
2018-07-15T00:51:03.493Z,40.60
2018-07-15T00:51:36.630Z,40.60
2018-07-15T00:52:09.755Z,41.00
2018-07-15T00:52:42.794Z,41.00
2018-07-15T00:53:15.834Z,41.30
2018-07-15T00:53:48.908Z,41.00
2018-07-15T00:54:21.932Z,40.90
2018-07-15T00:54:54.942Z,41.00
2018-07-15T00:55:28.001Z,40.90
2018-07-15T00:56:01.038Z,40.60
2018-07-15T00:56:34.074Z,40.60
2018-07-15T00:57:07.140Z,40.50
2018-07-15T00:57:40.210Z,40.70
2018-07-15T00:58:13.246Z,40.80
2018-07-15T00:58:46.366Z,40.70
2018-07-15T00:59:19.406Z,40.90
2018-07-15T00:59:52.406Z,40.90
2018-07-15T01:00:31.205Z,41.10
2018-07-15T01:01:04.280Z,41.20
2018-07-15T01:01:37.831Z,41.00
2018-07-15T01:02:10.912Z,41.10
2018-07-15T01:02:43.942Z,41.30
2018-07-15T01:03:17.006Z,41.40
2018-07-15T01:03:50.051Z,41.70
2018-07-15T01:04:23.086Z,41.90
2018-07-15T01:04:56.146Z,42.00
2018-07-15T01:05:29.208Z,42.10
2018-07-15T01:06:02.512Z,42.10
2018-07-15T01:06:35.546Z,42.30
2018-07-15T01:07:08.590Z,42.40
2018-07-15T01:07:41.674Z,43.30
2018-07-15T01:08:14.686Z,43.60
2018-07-15T01:08:47.764Z,43.80
2018-07-15T01:09:20.764Z,43.90
2018-07-15T01:09:53.870Z,44.10
2018-07-15T01:10:26.880Z,44.40
2018-07-15T01:10:59.874Z,44.90
2018-07-15T01:11:32.869Z,45.10
2018-07-15T01:12:05.896Z,45.40
2018-07-15T01:12:38.977Z,45.30
2018-07-15T01:13:12.018Z,45.50
2018-07-15T01:13:45.041Z,45.70
2018-07-15T01:14:18.074Z,45.70
2018-07-15T01:14:51.130Z,45.40
2018-07-15T01:15:24.159Z,45.50
2018-07-15T01:15:57.208Z,45.70
2018-07-15T01:16:30.232Z,45.80
2018-07-15T01:17:03.260Z,46.00
2018-07-15T01:17:36.272Z,46.00
2018-07-15T01:18:09.312Z,46.00
2018-07-15T01:18:42.374Z,46.10
2018-07-15T01:19:15.442Z,46.40
2018-07-15T01:19:48.456Z,46.60
2018-07-15T01:20:21.646Z,46.70
2018-07-15T01:20:54.715Z,47.10
2018-07-15T01:21:27.728Z,47.00
2018-07-15T01:22:00.755Z,47.20
2018-07-15T01:22:33.826Z,47.50
2018-07-15T01:23:06.846Z,47.60
2018-07-15T01:23:39.876Z,47.60
2018-07-15T01:24:12.914Z,48.00
2018-07-15T01:24:45.968Z,48.20
2018-07-15T01:25:19.472Z,48.30
2018-07-15T01:25:52.541Z,48.50
2018-07-15T01:26:25.493Z,48.80
2018-07-15T01:26:58.518Z,48.90
2018-07-15T01:27:31.601Z,48.90
2018-07-15T01:28:04.895Z,49.10
2018-07-15T01:28:37.914Z,49.10
2018-07-15T01:29:10.960Z,49.40
2018-07-15T01:29:44.015Z,50.20
2018-07-15T01:30:17.052Z,50.90
2018-07-15T01:30:50.134Z,51.90
2018-07-15T01:31:23.167Z,52.10
2018-07-15T01:31:56.159Z,52.40
2018-07-15T01:32:29.182Z,52.40
2018-07-15T01:33:02.286Z,52.90
2018-07-15T01:33:35.314Z,52.70
2018-07-15T01:34:08.348Z,52.60
2018-07-15T01:34:41.373Z,52.40
2018-07-15T01:35:14.403Z,52.60
2018-07-15T01:35:47.420Z,52.80
2018-07-15T01:36:20.452Z,52.60
2018-07-15T01:36:53.481Z,52.60
2018-07-15T01:37:26.539Z,52.70
2018-07-15T01:37:59.542Z,52.90
2018-07-15T01:38:32.554Z,53.30
2018-07-15T01:39:05.839Z,53.70
2018-07-15T01:39:38.848Z,54.50
2018-07-15T01:40:11.897Z,55.30
2018-07-15T01:40:44.981Z,56.10
2018-07-15T01:41:17.989Z,56.70
2018-07-15T01:41:51.005Z,56.60
2018-07-15T01:42:24.045Z,56.70
2018-07-15T01:42:57.103Z,56.90
2018-07-15T01:43:30.115Z,57.10
2018-07-15T01:44:03.127Z,56.70
2018-07-15T01:44:36.144Z,56.10
2018-07-15T01:45:09.249Z,55.70
2018-07-15T01:45:42.282Z,55.50
2018-07-15T01:46:16.013Z,55.40
2018-07-15T01:46:49.056Z,55.40
2018-07-15T01:47:24.149Z,55.20
2018-07-15T01:47:57.169Z,55.10
2018-07-15T01:48:30.218Z,55.00
2018-07-15T01:49:03.289Z,55.40
2018-07-15T01:49:36.466Z,55.90
2018-07-15T01:50:09.506Z,56.20
2018-07-15T01:50:42.553Z,56.40
2018-07-15T01:51:15.576Z,56.30
2018-07-15T01:51:48.598Z,56.40
2018-07-15T01:52:21.620Z,56.40
2018-07-15T01:52:54.641Z,56.70
2018-07-15T01:53:27.690Z,56.70
2018-07-15T01:54:00.722Z,57.20
2018-07-15T01:54:33.748Z,57.40
2018-07-15T01:55:07.316Z,57.50
2018-07-15T01:55:40.367Z,57.80
2018-07-15T01:56:13.405Z,57.80
2018-07-15T01:56:46.436Z,58.00
2018-07-15T01:57:19.474Z,58.20
2018-07-15T01:57:52.498Z,58.40
2018-07-15T01:58:25.547Z,58.60
2018-07-15T01:58:58.544Z,59.00
2018-07-15T01:59:31.615Z,59.00
2018-07-15T02:00:05.408Z,59.10
2018-07-15T02:00:38.471Z,59.40
2018-07-15T02:01:11.531Z,59.90
2018-07-15T02:01:44.573Z,60.00
2018-07-15T02:02:17.574Z,60.80
2018-07-15T02:02:50.557Z,61.20
2018-07-15T02:03:23.569Z,61.20
2018-07-15T02:03:56.595Z,61.50
2018-07-15T02:04:29.598Z,61.80
2018-07-15T02:05:02.876Z,62.30
2018-07-15T02:05:35.889Z,62.30
2018-07-15T02:06:08.931Z,62.10
2018-07-15T02:06:42.739Z,62.20
2018-07-15T02:07:15.768Z,62.40
2018-07-15T02:07:48.796Z,62.70
2018-07-15T02:08:21.828Z,63.10
2018-07-15T02:08:54.826Z,63.30
2018-07-15T02:09:27.839Z,63.70
2018-07-15T02:10:00.894Z,63.90
2018-07-15T02:10:33.923Z,64.30
2018-07-15T02:11:07.078Z,64.70
2018-07-15T02:11:40.096Z,65.10
2018-07-15T02:12:13.107Z,65.20
2018-07-15T02:12:46.118Z,65.20
2018-07-15T02:13:19.185Z,65.60
2018-07-15T02:13:52.186Z,66.10
2018-07-15T02:14:25.234Z,66.30
2018-07-15T02:14:58.258Z,66.40
2018-07-15T02:15:31.276Z,66.70
2018-07-15T02:16:04.332Z,66.90
2018-07-15T02:16:37.350Z,67.20
2018-07-15T02:17:10.428Z,67.60
2018-07-15T02:17:43.474Z,68.60
2018-07-15T02:18:16.535Z,69.40
2018-07-15T02:18:49.602Z,70.00
2018-07-15T02:19:22.655Z,70.40
2018-07-15T02:19:55.687Z,70.40
2018-07-15T02:20:28.718Z,70.50
2018-07-15T02:21:01.742Z,70.70
2018-07-15T02:21:34.787Z,71.10
2018-07-15T02:22:07.787Z,71.40
2018-07-15T02:22:40.789Z,71.40
2018-07-15T02:23:13.782Z,71.30
2018-07-15T02:23:46.857Z,71.80
2018-07-15T02:24:19.893Z,72.20
2018-07-15T02:24:52.912Z,72.70
2018-07-15T02:25:25.964Z,73.30
2018-07-15T02:25:58.974Z,73.70
2018-07-15T02:26:31.959Z,74.00
2018-07-15T02:27:05.060Z,74.10
2018-07-15T02:27:38.078Z,74.20
2018-07-15T02:28:11.087Z,74.60
2018-07-15T02:28:44.098Z,75.00
2018-07-15T02:29:17.134Z,75.20
2018-07-15T02:29:50.162Z,75.10
2018-07-15T02:30:23.165Z,75.50
2018-07-15T02:30:56.196Z,75.70
2018-07-15T02:31:29.215Z,75.60
2018-07-15T02:32:02.263Z,75.90
2018-07-15T02:32:35.275Z,75.90
2018-07-15T02:33:08.282Z,76.10
2018-07-15T02:33:41.327Z,76.40
2018-07-15T02:34:14.379Z,76.70
2018-07-15T02:34:47.443Z,77.40
2018-07-15T02:35:21.349Z,77.90
2018-07-15T02:35:54.387Z,78.20
2018-07-15T02:36:27.506Z,78.90
2018-07-15T02:37:00.535Z,79.30
2018-07-15T02:37:33.566Z,79.80
2018-07-15T02:38:06.628Z,80.20
2018-07-15T02:38:39.591Z,80.50
2018-07-15T02:39:12.565Z,80.80
2018-07-15T02:39:45.598Z,81.40
2018-07-15T02:40:18.638Z,81.60
2018-07-15T02:40:51.632Z,82.00
2018-07-15T02:41:24.628Z,82.30
2018-07-15T02:41:57.696Z,82.60
2018-07-15T02:42:30.736Z,82.80
2018-07-15T02:43:03.932Z,83.10
2018-07-15T02:43:36.987Z,83.60
2018-07-15T02:44:10.005Z,84.00
2018-07-15T02:44:43.060Z,84.40
2018-07-15T02:45:16.094Z,84.60
2018-07-15T02:45:49.131Z,84.60
2018-07-15T02:46:22.148Z,84.60
2018-07-15T02:46:55.280Z,84.80
2018-07-15T02:47:28.383Z,85.40
2018-07-15T02:48:01.450Z,86.30
2018-07-15T02:48:34.466Z,86.60
2018-07-15T02:49:07.508Z,86.80
2018-07-15T02:49:40.600Z,87.00
2018-07-15T02:50:13.630Z,87.00
2018-07-15T02:50:46.691Z,87.00
2018-07-15T02:51:19.724Z,87.30
2018-07-15T02:51:52.932Z,87.70
2018-07-15T02:52:25.952Z,87.70
2018-07-15T02:52:59.014Z,87.70
2018-07-15T02:53:32.032Z,88.00
2018-07-15T02:54:05.482Z,88.20
2018-07-15T02:54:38.536Z,88.30
2018-07-15T02:55:11.566Z,88.60
2018-07-15T02:55:44.578Z,89.30
2018-07-15T02:56:17.612Z,90.10
2018-07-15T02:56:50.650Z,90.50
2018-07-15T02:57:23.674Z,90.70
2018-07-15T02:57:56.715Z,91.30
2018-07-15T02:58:29.730Z,91.20
2018-07-15T02:59:02.798Z,91.30
2018-07-15T02:59:35.816Z,91.50
2018-07-15T03:00:08.906Z,91.50
2018-07-15T03:00:41.900Z,91.40
2018-07-15T03:01:14.938Z,91.50
2018-07-15T03:01:47.995Z,91.70
2018-07-15T03:02:21.078Z,91.70
2018-07-15T03:02:54.070Z,91.80
2018-07-15T03:03:27.072Z,91.80
2018-07-15T03:04:00.023Z,91.70
2018-07-15T03:04:33.040Z,91.60
2018-07-15T03:05:06.064Z,91.40
2018-07-15T03:05:39.112Z,91.40
2018-07-15T03:06:12.127Z,91.60
2018-07-15T03:06:45.242Z,91.90
2018-07-15T03:07:18.252Z,92.50
2018-07-15T03:07:51.292Z,92.80
2018-07-15T03:08:24.322Z,93.10
2018-07-15T03:08:58.080Z,93.40
2018-07-15T03:09:31.996Z,93.60
2018-07-15T03:10:05.052Z,94.00
2018-07-15T03:10:38.074Z,94.30
2018-07-15T03:11:11.129Z,94.50
2018-07-15T03:11:44.153Z,94.50
2018-07-15T03:12:17.199Z,95.10
2018-07-15T03:12:50.504Z,95.70
2018-07-15T03:13:26.716Z,95.90
2018-07-15T03:13:59.736Z,95.70
2018-07-15T03:14:32.761Z,95.50
2018-07-15T03:15:05.855Z,95.60
2018-07-15T03:15:38.850Z,96.00
2018-07-15T03:16:11.887Z,95.80
2018-07-15T03:16:44.898Z,95.70
2018-07-15T03:17:17.949Z,95.50
2018-07-15T03:17:50.993Z,95.60
2018-07-15T03:18:24.117Z,95.60
2018-07-15T03:18:57.090Z,95.90
2018-07-15T03:19:30.165Z,96.10
2018-07-15T03:20:03.281Z,96.10
2018-07-15T03:20:36.395Z,96.50
2018-07-15T03:21:09.499Z,96.80
2018-07-15T03:21:42.582Z,96.80
2018-07-15T03:22:15.670Z,96.80
2018-07-15T03:22:48.748Z,96.90
2018-07-15T03:23:21.842Z,97.20
2018-07-15T03:23:54.885Z,97.60
2018-07-15T03:24:27.930Z,97.90
2018-07-15T03:25:00.968Z,97.90
2018-07-15T03:25:34.021Z,97.80
2018-07-15T03:26:07.036Z,97.80
2018-07-15T03:26:40.101Z,97.90
2018-07-15T03:27:13.170Z,97.90
2018-07-15T03:27:46.184Z,97.90
2018-07-15T03:28:27.042Z,97.90
2018-07-15T03:29:00.049Z,98.20
2018-07-15T03:29:33.061Z,98.50
2018-07-15T03:30:06.301Z,98.40
2018-07-15T03:30:39.326Z,98.70
2018-07-15T03:31:12.312Z,98.90
2018-07-15T03:31:45.376Z,99.90
2018-07-15T03:32:18.678Z,99.90
2018-07-15T03:32:51.694Z,99.90
2018-07-15T03:33:24.670Z,99.90
2018-07-15T03:33:57.684Z,99.90
2018-07-15T03:34:30.663Z,99.90
2018-07-15T03:35:03.748Z,99.90
2018-07-15T03:35:36.812Z,99.90
2018-07-15T03:36:09.874Z,99.90
2018-07-15T03:36:42.877Z,99.90
2018-07-15T03:37:15.892Z,99.90
2018-07-15T03:37:48.919Z,99.90
2018-07-15T03:38:21.958Z,99.90
2018-07-15T03:38:54.958Z,99.90
2018-07-15T03:39:27.984Z,99.90
2018-07-15T03:40:01.019Z,99.90
2018-07-15T03:40:34.043Z,99.90
2018-07-15T03:41:07.090Z,99.90
2018-07-15T03:41:40.074Z,99.90
2018-07-15T03:42:13.096Z,99.90
2018-07-15T03:42:46.139Z,99.90
2018-07-15T03:43:19.144Z,99.90
2018-07-15T03:43:52.190Z,99.90
2018-07-15T03:44:25.210Z,99.90
2018-07-15T03:44:58.341Z,99.90
2018-07-15T03:45:31.355Z,99.90
2018-07-15T03:46:04.438Z,99.90
2018-07-15T03:46:37.784Z,99.90
2018-07-15T03:47:10.787Z,99.90
2018-07-15T03:47:43.830Z,99.90
2018-07-15T03:48:16.834Z,99.90
2018-07-15T03:48:49.801Z,99.90
2018-07-15T03:49:22.834Z,99.90
2018-07-15T03:49:55.874Z,99.90
2018-07-15T03:50:28.896Z,99.90
2018-07-15T03:51:01.987Z,99.90
2018-07-15T03:51:35.039Z,99.90
2018-07-15T03:52:08.081Z,99.90
2018-07-15T03:52:41.141Z,99.90
2018-07-15T03:53:14.150Z,99.90
2018-07-15T03:53:47.258Z,99.90
2018-07-15T03:54:20.278Z,99.90
2018-07-15T03:54:53.326Z,99.90
2018-07-15T03:55:26.421Z,99.90
2018-07-15T03:55:59.482Z,99.90
2018-07-15T03:56:32.524Z,99.90
2018-07-15T03:57:05.847Z,99.90
2018-07-15T03:57:38.955Z,99.90
2018-07-15T03:58:11.940Z,99.90
2018-07-15T03:58:44.948Z,99.90
2018-07-15T03:59:17.930Z,99.90
2018-07-15T03:59:50.924Z,99.90
2018-07-15T04:01:53.494Z,99.90
2018-07-15T04:02:26.491Z,99.60
2018-07-15T04:02:59.522Z,99.40
2018-07-15T04:03:32.561Z,99.10
2018-07-15T04:04:05.593Z,99.20
2018-07-15T04:04:38.642Z,99.10
2018-07-15T04:05:11.681Z,98.90
2018-07-15T04:05:44.696Z,98.60
2018-07-15T04:06:17.734Z,98.40
2018-07-15T04:06:50.756Z,98.10
2018-07-15T04:07:23.786Z,97.80
2018-07-15T04:07:56.814Z,97.40
2018-07-15T04:08:29.847Z,97.50
2018-07-15T04:09:03.789Z,97.50
2018-07-15T04:09:36.802Z,97.50
2018-07-15T04:10:09.898Z,97.50
2018-07-15T04:10:42.942Z,97.40
2018-07-15T04:11:15.954Z,97.10
2018-07-15T04:11:49.322Z,96.90
2018-07-15T04:12:22.346Z,97.00
2018-07-15T04:12:55.560Z,97.10
2018-07-15T04:13:28.582Z,97.10
2018-07-15T04:14:01.654Z,96.80
2018-07-15T04:14:34.692Z,96.50
2018-07-15T04:15:07.872Z,96.70
2018-07-15T04:15:40.884Z,96.80
2018-07-15T04:16:13.904Z,96.60
2018-07-15T04:16:46.920Z,96.50
2018-07-15T04:17:19.968Z,96.10
2018-07-15T04:17:57.952Z,95.80
2018-07-15T04:18:30.956Z,95.00
2018-07-15T04:19:04.144Z,94.40
2018-07-15T04:19:37.711Z,94.10
2018-07-15T04:20:10.720Z,93.90
2018-07-15T04:20:43.868Z,93.40
2018-07-15T04:21:17.124Z,93.20
2018-07-15T04:21:50.255Z,93.30
2018-07-15T04:22:23.286Z,93.20
2018-07-15T04:22:56.982Z,92.80
2018-07-15T04:23:30.033Z,92.80
2018-07-15T04:24:03.049Z,93.10
2018-07-15T04:24:36.058Z,93.60
2018-07-15T04:25:09.042Z,93.50
2018-07-15T04:25:42.090Z,93.00
2018-07-15T04:26:15.139Z,93.00
2018-07-15T04:26:48.158Z,93.00
2018-07-15T04:27:21.184Z,92.60
2018-07-15T04:27:54.262Z,92.00
2018-07-15T04:28:27.302Z,91.10
2018-07-15T04:29:01.030Z,90.50
2018-07-15T04:29:34.056Z,90.20
2018-07-15T04:30:07.096Z,89.80
2018-07-15T04:30:40.097Z,89.60
2018-07-15T04:31:13.094Z,89.00
2018-07-15T04:31:46.094Z,88.20
2018-07-15T04:32:19.144Z,87.70
2018-07-15T04:32:52.228Z,87.00
2018-07-15T04:33:25.278Z,86.50
2018-07-15T04:33:58.313Z,86.20
2018-07-15T04:34:31.339Z,85.60
2018-07-15T04:35:04.442Z,85.10
2018-07-15T04:35:37.454Z,84.50
2018-07-15T04:36:10.470Z,84.20
2018-07-15T04:36:43.470Z,83.80
2018-07-15T04:37:16.492Z,83.90
2018-07-15T04:37:49.628Z,84.00
2018-07-15T04:38:22.570Z,84.00
2018-07-15T04:38:55.602Z,83.90
2018-07-15T04:39:28.609Z,83.50
2018-07-15T04:40:01.684Z,83.10
2018-07-15T04:40:34.730Z,83.00
2018-07-15T04:41:07.744Z,82.60
2018-07-15T04:41:40.770Z,82.50
2018-07-15T04:42:13.800Z,82.30
2018-07-15T04:42:47.102Z,82.00
2018-07-15T04:43:20.122Z,81.50
2018-07-15T04:43:53.251Z,81.30
2018-07-15T04:44:26.232Z,81.10
2018-07-15T04:44:59.244Z,80.90
2018-07-15T04:45:32.290Z,80.20
2018-07-15T04:46:05.354Z,79.90
2018-07-15T04:46:38.448Z,79.30
2018-07-15T04:47:11.480Z,78.90
2018-07-15T04:47:44.599Z,78.40
2018-07-15T04:48:17.634Z,78.10
2018-07-15T04:48:50.686Z,77.90
2018-07-15T04:49:23.701Z,77.70
2018-07-15T04:49:56.686Z,77.30
2018-07-15T04:50:29.698Z,77.00
2018-07-15T04:51:02.792Z,76.50
2018-07-15T04:51:35.812Z,76.00
2018-07-15T04:52:08.825Z,75.60
2018-07-15T04:52:41.822Z,75.10
2018-07-15T04:53:14.840Z,74.90
2018-07-15T04:53:47.916Z,74.70
2018-07-15T04:54:20.927Z,74.40
2018-07-15T04:54:53.984Z,74.00
2018-07-15T04:55:27.024Z,73.60
2018-07-15T04:56:00.036Z,73.00
2018-07-15T04:56:33.096Z,72.20
2018-07-15T04:57:06.124Z,71.50
2018-07-15T04:57:39.162Z,70.40
2018-07-15T04:58:12.157Z,70.00
2018-07-15T04:58:45.233Z,69.50
2018-07-15T04:59:18.267Z,68.80
2018-07-15T04:59:51.288Z,68.10
2018-07-15T05:00:24.312Z,67.50
2018-07-15T05:00:57.320Z,66.60
2018-07-15T05:01:30.380Z,65.90
2018-07-15T05:02:03.453Z,65.20
2018-07-15T05:02:36.483Z,63.70
2018-07-15T05:03:09.548Z,62.00
2018-07-15T05:03:42.549Z,61.70
2018-07-15T05:04:15.580Z,61.60
2018-07-15T05:04:48.604Z,61.00
2018-07-15T05:05:21.636Z,60.50
2018-07-15T05:05:54.638Z,60.00
2018-07-15T05:06:27.644Z,59.30
2018-07-15T05:07:00.644Z,58.70
2018-07-15T05:07:33.678Z,58.00
2018-07-15T05:08:06.738Z,57.30
2018-07-15T05:08:39.734Z,56.40
2018-07-15T05:09:12.752Z,56.10
2018-07-15T05:09:45.772Z,54.80
2018-07-15T05:10:18.809Z,53.20
2018-07-15T05:10:51.820Z,52.70
2018-07-15T05:11:24.980Z,52.00
2018-07-15T05:11:57.917Z,51.00
2018-07-15T05:12:30.948Z,50.60
2018-07-15T05:13:04.065Z,49.80
2018-07-15T05:13:37.078Z,47.00
2018-07-15T05:14:10.102Z,45.20
2018-07-15T05:14:43.157Z,44.10
2018-07-15T05:15:16.175Z,44.30
2018-07-15T05:15:49.180Z,44.30
2018-07-15T05:16:22.176Z,42.00
2018-07-15T05:16:55.176Z,40.80
2018-07-15T05:17:28.255Z,39.70
2018-07-15T05:18:01.270Z,39.20
2018-07-15T05:18:34.397Z,37.00
2018-07-15T05:19:07.328Z,35.80
2018-07-15T05:19:40.364Z,36.50
2018-07-15T05:20:13.402Z,36.20
2018-07-15T05:20:46.420Z,35.10
2018-07-15T05:21:19.442Z,34.00
2018-07-15T05:21:52.734Z,33.40
2018-07-15T05:22:25.784Z,32.00
2018-07-15T05:22:58.782Z,31.70
2018-07-15T05:23:31.868Z,31.80
2018-07-15T05:24:04.914Z,31.40
2018-07-15T05:24:37.946Z,30.80
2018-07-15T05:25:10.959Z,29.00
2018-07-15T05:25:43.994Z,28.20
2018-07-15T05:26:16.963Z,27.30
2018-07-15T05:26:50.000Z,25.20
2018-07-15T05:27:23.010Z,25.90
2018-07-15T05:27:56.065Z,24.70
2018-07-15T05:28:29.062Z,24.40
2018-07-15T05:29:02.082Z,23.50
2018-07-15T05:29:35.112Z,22.90
2018-07-15T05:30:08.139Z,22.00
2018-07-15T05:30:41.244Z,21.10
2018-07-15T05:31:14.211Z,20.90
2018-07-15T05:31:47.206Z,20.60
2018-07-15T05:32:20.223Z,21.30
2018-07-15T05:32:53.283Z,20.40
2018-07-15T05:33:26.298Z,20.10
2018-07-15T05:33:59.294Z,20.00
2018-07-15T05:34:32.286Z,17.50
2018-07-15T05:35:05.321Z,16.90
2018-07-15T05:35:38.266Z,15.30
2018-07-15T05:36:11.320Z,15.50
2018-07-15T05:36:44.412Z,15.50
2018-07-15T05:37:17.443Z,15.70
2018-07-15T05:37:50.494Z,14.70
2018-07-15T05:38:23.484Z,15.00
2018-07-15T05:38:56.521Z,14.90
2018-07-15T05:39:29.497Z,14.40
2018-07-15T05:40:02.609Z,13.50
2018-07-15T05:40:35.598Z,13.50
2018-07-15T05:41:08.652Z,13.00
2018-07-15T05:41:41.703Z,11.60
2018-07-15T05:42:14.784Z,10.10
2018-07-15T05:42:47.778Z,11.00
2018-07-15T05:43:20.818Z,11.50
2018-07-15T05:43:53.832Z,10.60
2018-07-15T05:44:26.849Z,9.00
2018-07-15T05:44:59.994Z,9.60
2018-07-15T05:45:33.010Z,8.00
2018-07-15T05:46:06.062Z,8.60
2018-07-15T05:46:39.094Z,7.50
2018-07-15T05:47:12.090Z,7.00
2018-07-15T05:47:45.142Z,8.00
2018-07-15T05:48:18.151Z,7.80
2018-07-15T05:48:51.174Z,7.40
2018-07-15T05:49:24.244Z,8.00
2018-07-15T05:49:57.286Z,6.10
2018-07-15T05:50:30.356Z,5.00
2018-07-15T05:51:03.480Z,5.00
2018-07-15T05:51:36.522Z,5.00
2018-07-15T05:52:09.592Z,5.00
2018-07-15T05:52:42.637Z,5.00
2018-07-15T05:53:15.692Z,5.00
2018-07-15T05:53:48.738Z,5.00
2018-07-15T05:54:21.780Z,5.00
2018-07-15T05:54:54.790Z,5.00
2018-07-15T05:55:27.836Z,5.00
2018-07-15T05:56:00.852Z,5.00
2018-07-15T05:56:34.090Z,5.00
2018-07-15T05:57:07.124Z,5.00
2018-07-15T05:57:40.146Z,5.00
2018-07-15T05:58:13.181Z,5.00
2018-07-15T05:58:46.224Z,5.00
2018-07-15T05:59:19.271Z,5.00
2018-07-15T05:59:52.302Z,5.00
2018-07-15T06:00:25.382Z,5.00
2018-07-15T06:00:58.424Z,5.00
2018-07-15T06:01:31.502Z,5.00
2018-07-15T06:02:04.685Z,5.00
2018-07-15T06:02:37.726Z,5.00
2018-07-15T06:03:10.760Z,5.00
2018-07-15T06:03:43.782Z,5.00
2018-07-15T06:04:16.836Z,5.00
2018-07-15T06:04:49.836Z,5.00
2018-07-15T06:05:22.874Z,5.00
2018-07-15T06:05:55.938Z,5.00
2018-07-15T06:06:28.998Z,5.00
2018-07-15T06:07:02.027Z,5.00
2018-07-15T06:07:35.081Z,5.00
2018-07-15T06:08:08.104Z,5.00
2018-07-15T06:08:41.128Z,5.00
2018-07-15T06:09:14.157Z,5.00
2018-07-15T06:09:47.185Z,5.00
2018-07-15T06:10:20.228Z,5.00
2018-07-15T06:10:53.270Z,5.00
2018-07-15T06:11:26.296Z,5.00
2018-07-15T06:11:59.380Z,5.00
2018-07-15T06:12:32.408Z,5.00
2018-07-15T06:13:05.494Z,5.00
2018-07-15T06:13:38.680Z,5.00
2018-07-15T06:14:11.688Z,5.00
2018-07-15T06:14:44.676Z,5.00
2018-07-15T06:15:17.694Z,5.00
2018-07-15T06:15:50.690Z,5.00
2018-07-15T06:16:23.773Z,5.00
2018-07-15T06:26:46.868Z,5.00
2018-07-15T06:27:19.928Z,5.00
2018-07-15T06:27:52.946Z,5.00
2018-07-15T06:28:25.960Z,5.00
2018-07-15T06:28:58.968Z,5.00
2018-07-15T06:29:31.986Z,5.00
2018-07-15T06:30:05.024Z,5.00
2018-07-15T06:30:38.054Z,5.00
2018-07-15T06:31:11.016Z,5.00
2018-07-15T06:31:44.021Z,5.00
2018-07-15T06:32:17.008Z,5.00
2018-07-15T06:32:50.066Z,5.00
2018-07-15T06:33:23.184Z,5.00
2018-07-15T06:33:56.221Z,5.00
2018-07-15T06:34:29.232Z,5.00
2018-07-15T06:35:02.288Z,5.00
2018-07-15T06:35:35.318Z,5.00
2018-07-15T06:36:08.316Z,5.00
2018-07-15T06:36:41.334Z,5.00
2018-07-15T06:37:14.338Z,5.00
2018-07-15T06:37:47.376Z,5.00
2018-07-15T06:38:20.382Z,5.00
2018-07-15T06:38:53.403Z,5.00
2018-07-15T06:39:26.399Z,5.00
2018-07-15T06:39:59.428Z,5.00
2018-07-15T06:40:32.958Z,5.00
2018-07-15T06:41:06.032Z,5.00
2018-07-15T06:41:39.044Z,5.00
2018-07-15T06:42:12.056Z,5.00
2018-07-15T06:42:45.064Z,5.00
2018-07-15T06:43:18.042Z,5.00
2018-07-15T06:43:51.171Z,5.00
2018-07-15T06:44:24.181Z,5.00
2018-07-15T06:44:57.183Z,5.00
2018-07-15T06:45:30.232Z,5.00
2018-07-15T06:46:03.262Z,5.00
2018-07-15T06:46:36.284Z,5.00
2018-07-15T06:47:09.298Z,5.00
2018-07-15T06:47:42.678Z,5.00
2018-07-15T06:48:15.760Z,5.00
2018-07-15T06:48:48.832Z,5.00
2018-07-15T06:49:21.903Z,5.00
2018-07-15T06:49:55.008Z,5.00
2018-07-15T06:50:28.082Z,5.00
2018-07-15T06:51:01.120Z,5.00
2018-07-15T06:51:34.134Z,5.00
2018-07-15T06:52:07.222Z,5.00
2018-07-15T06:52:40.217Z,5.00
2018-07-15T06:53:13.242Z,5.00
2018-07-15T06:53:46.330Z,5.00
2018-07-15T06:54:19.380Z,5.00
2018-07-15T06:54:52.426Z,5.00
2018-07-15T06:55:25.458Z,5.00
2018-07-15T06:55:58.540Z,5.00
2018-07-15T06:56:31.556Z,5.00
2018-07-15T06:57:04.584Z,5.00
2018-07-15T06:57:37.602Z,5.00
2018-07-15T06:58:10.618Z,5.00
2018-07-15T06:58:43.784Z,5.00
2018-07-15T06:59:16.798Z,5.00
2018-07-15T06:59:49.835Z,5.00
2018-07-15T07:00:22.874Z,5.00
2018-07-15T07:00:55.861Z,5.00
2018-07-15T07:01:29.757Z,5.00
2018-07-15T07:02:02.792Z,5.00
2018-07-15T07:02:35.822Z,5.00
2018-07-15T07:03:08.920Z,5.00
2018-07-15T07:03:41.952Z,5.00
2018-07-15T07:04:14.975Z,5.00
2018-07-15T07:04:47.970Z,5.00
2018-07-15T07:05:20.992Z,5.00
2018-07-15T07:05:54.052Z,5.00
2018-07-15T07:06:27.117Z,5.00
2018-07-15T07:07:00.298Z,5.00
2018-07-15T07:07:34.945Z,5.00
2018-07-15T07:08:13.031Z,5.00
2018-07-15T07:08:46.050Z,5.00
2018-07-15T07:09:19.065Z,5.00
2018-07-15T07:09:52.102Z,5.00
2018-07-15T07:10:25.127Z,5.00
2018-07-15T07:10:58.194Z,5.00
2018-07-15T07:13:00.800Z,5.00
2018-07-15T07:13:33.962Z,5.00
2018-07-15T07:14:07.113Z,5.00
2018-07-15T07:14:40.058Z,5.00
2018-07-15T07:15:13.102Z,5.00
2018-07-15T07:15:46.178Z,5.00
2018-07-15T07:16:19.186Z,5.00
2018-07-15T07:16:52.206Z,5.00
2018-07-15T07:17:25.226Z,5.00
2018-07-15T07:17:58.260Z,5.00
2018-07-15T07:18:31.274Z,5.00
2018-07-15T07:19:04.371Z,5.00
2018-07-15T07:19:37.383Z,5.00
2018-07-15T07:20:10.412Z,5.00
2018-07-15T07:20:43.450Z,5.00
2018-07-15T07:21:17.028Z,5.00
2018-07-15T07:21:50.038Z,5.00
2018-07-15T07:22:23.050Z,5.00
2018-07-15T07:22:56.074Z,5.00
2018-07-15T07:23:29.096Z,5.00
2018-07-15T07:24:02.115Z,5.00
2018-07-15T07:24:35.192Z,5.00
2018-07-15T07:25:08.244Z,5.00
2018-07-15T07:25:41.309Z,5.00
2018-07-15T07:26:14.320Z,5.00
2018-07-15T07:26:47.350Z,5.00
2018-07-15T07:27:20.402Z,5.00
2018-07-15T07:27:53.754Z,5.00
2018-07-15T07:28:26.820Z,5.00
2018-07-15T07:28:59.838Z,5.00
2018-07-15T07:29:32.873Z,5.00
2018-07-15T07:30:05.939Z,5.00
2018-07-15T07:30:38.944Z,5.00
2018-07-15T07:31:11.952Z,5.00
2018-07-15T07:31:45.014Z,5.00
2018-07-15T07:32:18.141Z,5.00
2018-07-15T07:32:51.182Z,5.00
2018-07-15T07:33:24.220Z,5.00
2018-07-15T07:33:57.280Z,5.00
2018-07-15T07:34:30.311Z,5.00
2018-07-15T07:35:03.366Z,5.00
2018-07-15T07:35:36.405Z,5.00